sensor_id;sensor_type;location;lat;lon;timestamp;temperature;humidity
29571;DHT22;16814;52.118;11.436;2022-09-30T00:00:19;6.80;99.90
29571;DHT22;16814;52.118;11.436;2022-09-30T00:02:46;6.80;99.90
29571;DHT22;16814;52.118;11.436;2022-09-30T00:05:14;6.80;99.90
29571;DHT22;16814;52.118;11.436;2022-09-30T00:07:41;6.80;99.90
29571;DHT22;16814;52.118;11.436;2022-09-30T00:10:08;6.80;99.90
29571;DHT22;16814;52.118;11.436;2022-09-30T00:12:35;6.80;99.90
29571;DHT22;16814;52.118;11.436;2022-09-30T00:15:03;6.90;99.90
29571;DHT22;16814;52.118;11.436;2022-09-30T00:17:28;7.00;99.90
29571;DHT22;16814;52.118;11.436;2022-09-30T00:19:55;7.10;99.90
29571;DHT22;16814;52.118;11.436;2022-09-30T00:22:21;7.20;99.90
29571;DHT22;16814;52.118;11.436;2022-09-30T00:24:49;7.30;99.90
29571;DHT22;16814;52.118;11.436;2022-09-30T00:27:15;7.40;99.90
29571;DHT22;16814;52.118;11.436;2022-09-30T00:29:44;7.50;99.90
29571;DHT22;16814;52.118;11.436;2022-09-30T00:32:11;7.80;99.90
29571;DHT22;16814;52.118;11.436;2022-09-30T00:34:37;7.90;99.90
29571;DHT22;16814;52.118;11.436;2022-09-30T00:37:05;7.90;99.90
29571;DHT22;16814;52.118;11.436;2022-09-30T00:39:32;7.80;99.90
29571;DHT22;16814;52.118;11.436;2022-09-30T00:42:01;7.90;99.90
29571;DHT22;16814;52.118;11.436;2022-09-30T00:47:45;8.20;99.90
29571;DHT22;16814;52.118;11.436;2022-09-30T00:50:29;8.30;99.90
29571;DHT22;16814;52.118;11.436;2022-09-30T00:53:04;8.40;99.90
29571;DHT22;16814;52.118;11.436;2022-09-30T00:55:57;8.40;99.90
29571;DHT22;16814;52.118;11.436;2022-09-30T00:58:46;8.60;99.90
29571;DHT22;16814;52.118;11.436;2022-09-30T01:01:16;8.60;99.90
29571;DHT22;16814;52.118;11.436;2022-09-30T01:04:09;8.40;99.90
29571;DHT22;16814;52.118;11.436;2022-09-30T01:06:35;9.00;99.90
29571;DHT22;16814;52.118;11.436;2022-09-30T01:09:01;8.20;99.90
29571;DHT22;16814;52.118;11.436;2022-09-30T01:11:29;8.20;99.90
29571;DHT22;16814;52.118;11.436;2022-09-30T01:13:59;8.20;99.90
29571;DHT22;16814;52.118;11.436;2022-09-30T01:19:50;8.20;99.90
29571;DHT22;16814;52.118;11.436;2022-09-30T01:34:16;6.70;99.90
29571;DHT22;16814;52.118;11.436;2022-09-30T01:37:23;6.50;99.90
29571;DHT22;16814;52.118;11.436;2022-09-30T01:43:22;6.20;99.90
29571;DHT22;16814;52.118;11.436;2022-09-30T01:46:31;6.40;99.90
29571;DHT22;16814;52.118;11.436;2022-09-30T01:52:06;7.30;99.90
29571;DHT22;16814;52.118;11.436;2022-09-30T01:54:51;7.50;99.90
29571;DHT22;16814;52.118;11.436;2022-09-30T01:57:30;7.30;99.90
29571;DHT22;16814;52.118;11.436;2022-09-30T02:00:09;7.10;99.90
29571;DHT22;16814;52.118;11.436;2022-09-30T02:02:49;7.00;99.90
29571;DHT22;16814;52.118;11.436;2022-09-30T02:05:35;7.00;99.90
29571;DHT22;16814;52.118;11.436;2022-09-30T02:08:06;7.00;99.90
29571;DHT22;16814;52.118;11.436;2022-09-30T02:10:50;6.70;99.90
29571;DHT22;16814;52.118;11.436;2022-09-30T02:13:37;6.40;99.90
29571;DHT22;16814;52.118;11.436;2022-09-30T02:16:07;6.10;99.90
29571;DHT22;16814;52.118;11.436;2022-09-30T02:18:46;5.90;99.90
29571;DHT22;16814;52.118;11.436;2022-09-30T02:21:17;5.90;99.90
29571;DHT22;16814;52.118;11.436;2022-09-30T02:23:46;5.90;99.90
29571;DHT22;16814;52.118;11.436;2022-09-30T02:26:23;5.90;99.90
29571;DHT22;16814;52.118;11.436;2022-09-30T02:29:07;6.00;99.90
29571;DHT22;16814;52.118;11.436;2022-09-30T02:31:39;6.00;99.90
29571;DHT22;16814;52.118;11.436;2022-09-30T02:34:18;5.90;99.90
29571;DHT22;16814;52.118;11.436;2022-09-30T02:40:08;5.80;99.90
29571;DHT22;16814;52.118;11.436;2022-09-30T02:42:37;5.90;99.90
29571;DHT22;16814;52.118;11.436;2022-09-30T02:45:13;5.80;99.90
29571;DHT22;16814;52.118;11.436;2022-09-30T02:48:03;5.70;99.90
29571;DHT22;16814;52.118;11.436;2022-09-30T02:50:35;5.60;99.90
29571;DHT22;16814;52.118;11.436;2022-09-30T02:53:38;5.60;99.90
29571;DHT22;16814;52.118;11.436;2022-09-30T02:56:26;5.50;99.90
29571;DHT22;16814;52.118;11.436;2022-09-30T02:58:57;5.60;99.90
29571;DHT22;16814;52.118;11.436;2022-09-30T03:01:24;5.70;99.90
29571;DHT22;16814;52.118;11.436;2022-09-30T03:03:56;5.60;99.90
29571;DHT22;16814;52.118;11.436;2022-09-30T03:06:23;5.80;99.90
29571;DHT22;16814;52.118;11.436;2022-09-30T03:08:51;5.70;99.90
29571;DHT22;16814;52.118;11.436;2022-09-30T03:11:21;5.70;99.90
29571;DHT22;16814;52.118;11.436;2022-09-30T03:14:30;5.70;99.90
29571;DHT22;16814;52.118;11.436;2022-09-30T03:20:19;5.70;99.90
29571;DHT22;16814;52.118;11.436;2022-09-30T03:23:27;5.70;99.90
29571;DHT22;16814;52.118;11.436;2022-09-30T03:29:06;5.60;99.90
29571;DHT22;16814;52.118;11.436;2022-09-30T03:31:59;5.70;99.90
29571;DHT22;16814;52.118;11.436;2022-09-30T03:40:54;6.00;99.90
29571;DHT22;16814;52.118;11.436;2022-09-30T03:43:35;6.10;99.90
29571;DHT22;16814;52.118;11.436;2022-09-30T03:46:32;5.90;99.90
29571;DHT22;16814;52.118;11.436;2022-09-30T03:49:02;5.80;99.90
29571;DHT22;16814;52.118;11.436;2022-09-30T03:51:39;5.70;99.90
29571;DHT22;16814;52.118;11.436;2022-09-30T03:54:10;5.80;99.90
29571;DHT22;16814;52.118;11.436;2022-09-30T03:56:37;5.90;99.90
29571;DHT22;16814;52.118;11.436;2022-09-30T03:59:25;5.90;99.90
29571;DHT22;16814;52.118;11.436;2022-09-30T04:01:53;5.90;99.90
29571;DHT22;16814;52.118;11.436;2022-09-30T04:04:21;5.90;99.90
29571;DHT22;16814;52.118;11.436;2022-09-30T04:06:48;6.00;99.90
29571;DHT22;16814;52.118;11.436;2022-09-30T04:09:15;5.90;99.90
29571;DHT22;16814;52.118;11.436;2022-09-30T04:11:42;5.90;99.90
29571;DHT22;16814;52.118;11.436;2022-09-30T04:14:09;5.80;99.90
29571;DHT22;16814;52.118;11.436;2022-09-30T04:16:36;5.60;99.90
29571;DHT22;16814;52.118;11.436;2022-09-30T04:19:02;5.40;99.90
29571;DHT22;16814;52.118;11.436;2022-09-30T04:21:28;5.50;99.90
29571;DHT22;16814;52.118;11.436;2022-09-30T04:23:55;5.80;99.90
29571;DHT22;16814;52.118;11.436;2022-09-30T04:26:21;6.00;99.90
29571;DHT22;16814;52.118;11.436;2022-09-30T04:28:48;6.20;99.90
29571;DHT22;16814;52.118;11.436;2022-09-30T04:31:15;6.20;99.90
29571;DHT22;16814;52.118;11.436;2022-09-30T04:33:45;6.30;99.90
29571;DHT22;16814;52.118;11.436;2022-09-30T04:36:10;6.30;99.90
29571;DHT22;16814;52.118;11.436;2022-09-30T04:38:39;6.40;99.90
29571;DHT22;16814;52.118;11.436;2022-09-30T04:41:06;6.30;99.90
29571;DHT22;16814;52.118;11.436;2022-09-30T04:43:33;6.10;99.90
29571;DHT22;16814;52.118;11.436;2022-09-30T04:45:59;6.10;99.90
29571;DHT22;16814;52.118;11.436;2022-09-30T04:48:25;6.20;99.90
29571;DHT22;16814;52.118;11.436;2022-09-30T04:51:00;6.20;99.90
29571;DHT22;16814;52.118;11.436;2022-09-30T04:53:26;6.10;99.90
29571;DHT22;16814;52.118;11.436;2022-09-30T04:55:58;6.20;99.90
29571;DHT22;16814;52.118;11.436;2022-09-30T04:58:26;6.20;99.90
29571;DHT22;16814;52.118;11.436;2022-09-30T05:01:14;6.20;99.90
29571;DHT22;16814;52.118;11.436;2022-09-30T05:03:41;6.30;99.90
29571;DHT22;16814;52.118;11.436;2022-09-30T05:06:07;6.30;99.90
29571;DHT22;16814;52.118;11.436;2022-09-30T05:08:35;6.30;99.90
29571;DHT22;16814;52.118;11.436;2022-09-30T05:11:08;6.20;99.90
29571;DHT22;16814;52.118;11.436;2022-09-30T05:13:39;6.20;99.90
29571;DHT22;16814;52.118;11.436;2022-09-30T05:16:06;6.00;99.90
29571;DHT22;16814;52.118;11.436;2022-09-30T05:18:33;5.90;99.90
29571;DHT22;16814;52.118;11.436;2022-09-30T05:20:59;5.70;99.90
29571;DHT22;16814;52.118;11.436;2022-09-30T05:23:26;5.40;99.90
29571;DHT22;16814;52.118;11.436;2022-09-30T05:25:54;5.40;99.90
29571;DHT22;16814;52.118;11.436;2022-09-30T05:28:21;5.70;99.90
29571;DHT22;16814;52.118;11.436;2022-09-30T05:30:48;6.00;99.90
29571;DHT22;16814;52.118;11.436;2022-09-30T05:33:18;6.00;99.90
29571;DHT22;16814;52.118;11.436;2022-09-30T05:35:46;6.20;99.90
29571;DHT22;16814;52.118;11.436;2022-09-30T05:38:13;6.50;99.90
29571;DHT22;16814;52.118;11.436;2022-09-30T05:40:39;6.60;99.90
29571;DHT22;16814;52.118;11.436;2022-09-30T05:43:06;6.60;99.90
29571;DHT22;16814;52.118;11.436;2022-09-30T05:45:33;6.60;99.90
29571;DHT22;16814;52.118;11.436;2022-09-30T05:48:00;6.70;99.90
29571;DHT22;16814;52.118;11.436;2022-09-30T05:50:27;6.60;99.90
29571;DHT22;16814;52.118;11.436;2022-09-30T05:52:52;6.50;99.90
29571;DHT22;16814;52.118;11.436;2022-09-30T05:55:21;6.40;99.90
29571;DHT22;16814;52.118;11.436;2022-09-30T05:57:49;6.20;99.90
29571;DHT22;16814;52.118;11.436;2022-09-30T06:00:16;6.00;99.90
29571;DHT22;16814;52.118;11.436;2022-09-30T06:02:43;6.00;99.90
29571;DHT22;16814;52.118;11.436;2022-09-30T06:05:12;6.00;99.90
29571;DHT22;16814;52.118;11.436;2022-09-30T06:07:39;6.10;99.90
29571;DHT22;16814;52.118;11.436;2022-09-30T06:10:06;6.50;99.90
29571;DHT22;16814;52.118;11.436;2022-09-30T06:12:38;6.40;99.90
29571;DHT22;16814;52.118;11.436;2022-09-30T06:15:07;6.50;99.90
29571;DHT22;16814;52.118;11.436;2022-09-30T06:17:34;6.50;99.90
29571;DHT22;16814;52.118;11.436;2022-09-30T06:20:01;6.40;99.90
29571;DHT22;16814;52.118;11.436;2022-09-30T06:22:32;6.20;99.90
29571;DHT22;16814;52.118;11.436;2022-09-30T06:25:04;6.30;99.90
29571;DHT22;16814;52.118;11.436;2022-09-30T06:27:34;6.70;99.90
29571;DHT22;16814;52.118;11.436;2022-09-30T06:30:05;7.10;99.90
29571;DHT22;16814;52.118;11.436;2022-09-30T06:32:32;7.20;99.90
29571;DHT22;16814;52.118;11.436;2022-09-30T06:34:59;7.20;99.90
29571;DHT22;16814;52.118;11.436;2022-09-30T06:37:25;7.20;99.90
29571;DHT22;16814;52.118;11.436;2022-09-30T06:39:52;7.40;99.90
29571;DHT22;16814;52.118;11.436;2022-09-30T06:42:20;7.40;99.90
29571;DHT22;16814;52.118;11.436;2022-09-30T06:44:50;7.80;99.90
29571;DHT22;16814;52.118;11.436;2022-09-30T06:47:18;8.60;99.90
29571;DHT22;16814;52.118;11.436;2022-09-30T06:49:45;9.80;99.90
29571;DHT22;16814;52.118;11.436;2022-09-30T06:52:12;11.20;99.90
29571;DHT22;16814;52.118;11.436;2022-09-30T06:54:39;12.20;99.90
29571;DHT22;16814;52.118;11.436;2022-09-30T06:57:08;13.20;99.90
29571;DHT22;16814;52.118;11.436;2022-09-30T06:59:34;14.20;99.90
29571;DHT22;16814;52.118;11.436;2022-09-30T07:02:02;15.40;99.90
29571;DHT22;16814;52.118;11.436;2022-09-30T07:04:27;16.20;99.90
29571;DHT22;16814;52.118;11.436;2022-09-30T07:06:54;16.20;99.90
29571;DHT22;16814;52.118;11.436;2022-09-30T07:09:21;15.90;99.90
29571;DHT22;16814;52.118;11.436;2022-09-30T07:11:49;16.10;99.90
29571;DHT22;16814;52.118;11.436;2022-09-30T07:14:16;16.00;99.90
29571;DHT22;16814;52.118;11.436;2022-09-30T07:16:43;16.20;99.90
29571;DHT22;16814;52.118;11.436;2022-09-30T07:19:11;16.20;99.90
29571;DHT22;16814;52.118;11.436;2022-09-30T07:21:38;16.50;99.90
29571;DHT22;16814;52.118;11.436;2022-09-30T07:24:04;16.60;99.90
29571;DHT22;16814;52.118;11.436;2022-09-30T07:26:30;16.50;99.90
29571;DHT22;16814;52.118;11.436;2022-09-30T07:28:57;16.60;99.90
29571;DHT22;16814;52.118;11.436;2022-09-30T07:31:26;16.30;99.90
29571;DHT22;16814;52.118;11.436;2022-09-30T07:33:53;16.70;99.90
29571;DHT22;16814;52.118;11.436;2022-09-30T07:36:24;16.40;99.90
29571;DHT22;16814;52.118;11.436;2022-09-30T07:39:06;16.40;99.90
29571;DHT22;16814;52.118;11.436;2022-09-30T07:41:35;16.30;99.90
29571;DHT22;16814;52.118;11.436;2022-09-30T07:44:06;16.20;99.90
29571;DHT22;16814;52.118;11.436;2022-09-30T07:46:33;15.70;99.90
29571;DHT22;16814;52.118;11.436;2022-09-30T07:49:00;15.80;99.90
29571;DHT22;16814;52.118;11.436;2022-09-30T07:51:32;15.70;99.90
29571;DHT22;16814;52.118;11.436;2022-09-30T07:54:21;15.70;99.90
29571;DHT22;16814;52.118;11.436;2022-09-30T07:56:49;15.70;99.90
29571;DHT22;16814;52.118;11.436;2022-09-30T07:59:15;15.60;99.90
29571;DHT22;16814;52.118;11.436;2022-09-30T08:01:43;15.60;99.90
29571;DHT22;16814;52.118;11.436;2022-09-30T08:04:11;15.30;99.90
29571;DHT22;16814;52.118;11.436;2022-09-30T08:06:42;15.10;99.90
29571;DHT22;16814;52.118;11.436;2022-09-30T08:09:08;15.00;99.90
29571;DHT22;16814;52.118;11.436;2022-09-30T08:11:38;14.80;99.90
29571;DHT22;16814;52.118;11.436;2022-09-30T08:14:04;14.70;99.90
29571;DHT22;16814;52.118;11.436;2022-09-30T08:16:30;14.70;99.90
29571;DHT22;16814;52.118;11.436;2022-09-30T08:19:00;14.40;99.90
29571;DHT22;16814;52.118;11.436;2022-09-30T08:21:28;14.30;99.90
29571;DHT22;16814;52.118;11.436;2022-09-30T08:23:56;14.40;99.90
29571;DHT22;16814;52.118;11.436;2022-09-30T08:26:23;14.40;99.90
29571;DHT22;16814;52.118;11.436;2022-09-30T08:28:51;14.50;99.90
29571;DHT22;16814;52.118;11.436;2022-09-30T08:31:19;14.80;99.90
29571;DHT22;16814;52.118;11.436;2022-09-30T08:33:47;15.00;99.90
29571;DHT22;16814;52.118;11.436;2022-09-30T08:36:14;15.00;99.90
29571;DHT22;16814;52.118;11.436;2022-09-30T08:38:41;15.20;99.90
29571;DHT22;16814;52.118;11.436;2022-09-30T08:53:42;15.70;99.90
29571;DHT22;16814;52.118;11.436;2022-09-30T08:55:44;15.80;99.90
29571;DHT22;16814;52.118;11.436;2022-09-30T08:58:39;16.00;99.90
29571;DHT22;16814;52.118;11.436;2022-09-30T09:03:58;16.60;99.90
29571;DHT22;16814;52.118;11.436;2022-09-30T09:06:46;16.90;99.90
29571;DHT22;16814;52.118;11.436;2022-09-30T09:09:47;17.20;99.90
29571;DHT22;16814;52.118;11.436;2022-09-30T09:20:56;17.80;99.90
29571;DHT22;16814;52.118;11.436;2022-09-30T09:23:31;17.90;99.90
29571;DHT22;16814;52.118;11.436;2022-09-30T09:25:58;17.90;99.90
29571;DHT22;16814;52.118;11.436;2022-09-30T09:31:13;17.90;99.90
29571;DHT22;16814;52.118;11.436;2022-09-30T09:33:45;17.90;99.90
29571;DHT22;16814;52.118;11.436;2022-09-30T09:42:27;18.50;99.90
29571;DHT22;16814;52.118;11.436;2022-09-30T09:47:55;18.90;99.90
29571;DHT22;16814;52.118;11.436;2022-09-30T09:53:52;18.90;99.90
29571;DHT22;16814;52.118;11.436;2022-09-30T09:56:21;18.80;99.90
29571;DHT22;16814;52.118;11.436;2022-09-30T09:59:23;18.80;99.60
29571;DHT22;16814;52.118;11.436;2022-09-30T10:01:50;18.90;99.60
29571;DHT22;16814;52.118;11.436;2022-09-30T10:04:25;18.80;99.20
29571;DHT22;16814;52.118;11.436;2022-09-30T10:07:00;18.80;98.60
29571;DHT22;16814;52.118;11.436;2022-09-30T10:09:27;18.70;99.70
29571;DHT22;16814;52.118;11.436;2022-09-30T10:14:47;18.80;99.00
29571;DHT22;16814;52.118;11.436;2022-09-30T10:17:21;18.70;98.80
29571;DHT22;16814;52.118;11.436;2022-09-30T10:20:05;19.00;98.50
29571;DHT22;16814;52.118;11.436;2022-09-30T10:22:35;18.80;98.50
29571;DHT22;16814;52.118;11.436;2022-09-30T10:25:17;18.90;99.20
29571;DHT22;16814;52.118;11.436;2022-09-30T10:27:55;18.90;98.20
29571;DHT22;16814;52.118;11.436;2022-09-30T10:33:30;18.70;97.60
29571;DHT22;16814;52.118;11.436;2022-09-30T10:36:17;18.90;97.90
29571;DHT22;16814;52.118;11.436;2022-09-30T10:42:22;19.10;96.70
29571;DHT22;16814;52.118;11.436;2022-09-30T10:44:52;19.20;97.80
29571;DHT22;16814;52.118;11.436;2022-09-30T10:47:26;18.70;96.40
29571;DHT22;16814;52.118;11.436;2022-09-30T10:50:05;18.70;98.70
29571;DHT22;16814;52.118;11.436;2022-09-30T10:52:40;18.70;98.30
29571;DHT22;16814;52.118;11.436;2022-09-30T10:57:52;18.90;97.10
29571;DHT22;16814;52.118;11.436;2022-09-30T11:00:24;18.90;98.10
29571;DHT22;16814;52.118;11.436;2022-09-30T11:03:03;18.90;96.80
29571;DHT22;16814;52.118;11.436;2022-09-30T11:05:38;18.40;97.00
29571;DHT22;16814;52.118;11.436;2022-09-30T11:11:02;18.20;97.90
29571;DHT22;16814;52.118;11.436;2022-09-30T11:25:35;17.30;99.90
29571;DHT22;16814;52.118;11.436;2022-09-30T11:31:11;17.40;98.60
29571;DHT22;16814;52.118;11.436;2022-09-30T11:34:54;17.20;99.40
29571;DHT22;16814;52.118;11.436;2022-09-30T11:37:20;17.10;98.60
29571;DHT22;16814;52.118;11.436;2022-09-30T11:40:27;16.70;99.50
29571;DHT22;16814;52.118;11.436;2022-09-30T11:45:56;17.10;99.80
29571;DHT22;16814;52.118;11.436;2022-09-30T11:56:49;17.20;98.00
29571;DHT22;16814;52.118;11.436;2022-09-30T11:59:48;17.20;97.30
29571;DHT22;16814;52.118;11.436;2022-09-30T12:05:31;17.00;98.30
29571;DHT22;16814;52.118;11.436;2022-09-30T12:13:22;16.10;99.40
29571;DHT22;16814;52.118;11.436;2022-09-30T12:15:55;16.00;99.90
29571;DHT22;16814;52.118;11.436;2022-09-30T12:18:38;16.00;99.90
29571;DHT22;16814;52.118;11.436;2022-09-30T12:21:35;16.30;99.50
29571;DHT22;16814;52.118;11.436;2022-09-30T12:24:31;16.60;99.40
29571;DHT22;16814;52.118;11.436;2022-09-30T12:30:14;16.60;98.50
29571;DHT22;16814;52.118;11.436;2022-09-30T12:35:55;16.70;98.80
29571;DHT22;16814;52.118;11.436;2022-09-30T12:41:30;16.70;97.70
29571;DHT22;16814;52.118;11.436;2022-09-30T12:49:48;16.40;97.60
29571;DHT22;16814;52.118;11.436;2022-09-30T12:52:19;16.30;97.70
29571;DHT22;16814;52.118;11.436;2022-09-30T12:54:56;16.50;97.50
29571;DHT22;16814;52.118;11.436;2022-09-30T12:57:35;16.50;97.20
29571;DHT22;16814;52.118;11.436;2022-09-30T13:00:25;16.50;96.40
29571;DHT22;16814;52.118;11.436;2022-09-30T13:03:04;16.40;96.80
29571;DHT22;16814;52.118;11.436;2022-09-30T13:05:43;16.60;97.20
29571;DHT22;16814;52.118;11.436;2022-09-30T13:08:35;16.60;96.90
29571;DHT22;16814;52.118;11.436;2022-09-30T13:11:05;16.60;96.90
29571;DHT22;16814;52.118;11.436;2022-09-30T13:13:32;16.60;96.20
29571;DHT22;16814;52.118;11.436;2022-09-30T13:16:03;16.50;95.40
29571;DHT22;16814;52.118;11.436;2022-09-30T13:23:54;16.30;96.20
29571;DHT22;16814;52.118;11.436;2022-09-30T13:34:28;16.40;97.50
29571;DHT22;16814;52.118;11.436;2022-09-30T13:37:04;16.50;95.60
29571;DHT22;16814;52.118;11.436;2022-09-30T13:39:43;16.50;95.90
29571;DHT22;16814;52.118;11.436;2022-09-30T13:42:24;16.50;97.10
29571;DHT22;16814;52.118;11.436;2022-09-30T13:45:03;16.60;97.00
29571;DHT22;16814;52.118;11.436;2022-09-30T13:47:38;16.70;97.30
29571;DHT22;16814;52.118;11.436;2022-09-30T13:50:30;16.80;96.80
29571;DHT22;16814;52.118;11.436;2022-09-30T13:53:04;16.70;95.90
29571;DHT22;16814;52.118;11.436;2022-09-30T13:55:36;16.60;96.20
29571;DHT22;16814;52.118;11.436;2022-09-30T14:01:35;16.50;97.40
29571;DHT22;16814;52.118;11.436;2022-09-30T14:04:39;16.60;97.30
29571;DHT22;16814;52.118;11.436;2022-09-30T14:07:15;16.60;97.30
29571;DHT22;16814;52.118;11.436;2022-09-30T14:10:09;16.60;97.00
29571;DHT22;16814;52.118;11.436;2022-09-30T14:21:53;16.60;95.90
29571;DHT22;16814;52.118;11.436;2022-09-30T14:24:20;16.50;97.40
29571;DHT22;16814;52.118;11.436;2022-09-30T14:30:10;16.10;97.70
29571;DHT22;16814;52.118;11.436;2022-09-30T14:33:02;16.20;98.30
29571;DHT22;16814;52.118;11.436;2022-09-30T14:35:33;16.10;98.30
29571;DHT22;16814;52.118;11.436;2022-09-30T14:38:06;16.10;98.90
29571;DHT22;16814;52.118;11.436;2022-09-30T14:40:35;16.30;98.30
29571;DHT22;16814;52.118;11.436;2022-09-30T14:43:11;16.10;97.00
29571;DHT22;16814;52.118;11.436;2022-09-30T14:45:42;15.80;96.60
29571;DHT22;16814;52.118;11.436;2022-09-30T14:48:15;15.70;97.60
29571;DHT22;16814;52.118;11.436;2022-09-30T14:51:07;15.80;97.70
29571;DHT22;16814;52.118;11.436;2022-09-30T14:53:41;15.50;98.30
29571;DHT22;16814;52.118;11.436;2022-09-30T14:56:33;15.30;99.10
29571;DHT22;16814;52.118;11.436;2022-09-30T14:59:17;15.30;98.60
29571;DHT22;16814;52.118;11.436;2022-09-30T15:01:49;15.10;99.40
29571;DHT22;16814;52.118;11.436;2022-09-30T15:04:20;15.00;99.30
29571;DHT22;16814;52.118;11.436;2022-09-30T15:06:51;15.10;99.20
29571;DHT22;16814;52.118;11.436;2022-09-30T15:09:37;15.00;99.80
29571;DHT22;16814;52.118;11.436;2022-09-30T15:12:18;15.20;99.30
29571;DHT22;16814;52.118;11.436;2022-09-30T15:14:47;15.50;99.00
29571;DHT22;16814;52.118;11.436;2022-09-30T15:17:37;15.70;98.30
29571;DHT22;16814;52.118;11.436;2022-09-30T15:20:24;15.80;98.80
29571;DHT22;16814;52.118;11.436;2022-09-30T15:22:53;16.10;98.40
29571;DHT22;16814;52.118;11.436;2022-09-30T15:25:19;16.20;97.60
29571;DHT22;16814;52.118;11.436;2022-09-30T15:27:48;16.20;98.50
29571;DHT22;16814;52.118;11.436;2022-09-30T15:32:40;16.40;98.10
29571;DHT22;16814;52.118;11.436;2022-09-30T15:35:18;16.60;97.70
29571;DHT22;16814;52.118;11.436;2022-09-30T15:37:50;16.50;97.60
29571;DHT22;16814;52.118;11.436;2022-09-30T15:40:18;16.60;97.90
29571;DHT22;16814;52.118;11.436;2022-09-30T15:43:06;16.60;97.90
29571;DHT22;16814;52.118;11.436;2022-09-30T15:45:42;16.50;97.50
29571;DHT22;16814;52.118;11.436;2022-09-30T15:50:47;16.50;97.40
29571;DHT22;16814;52.118;11.436;2022-09-30T15:53:18;16.70;97.40
29571;DHT22;16814;52.118;11.436;2022-09-30T15:56:23;16.70;97.40
29571;DHT22;16814;52.118;11.436;2022-09-30T15:59:17;16.60;97.20
29571;DHT22;16814;52.118;11.436;2022-09-30T16:01:46;16.50;97.50
29571;DHT22;16814;52.118;11.436;2022-09-30T16:04:22;16.50;97.20
29571;DHT22;16814;52.118;11.436;2022-09-30T16:07:15;16.40;97.00
29571;DHT22;16814;52.118;11.436;2022-09-30T16:09:46;16.50;96.80
29571;DHT22;16814;52.118;11.436;2022-09-30T16:12:16;16.40;96.90
29571;DHT22;16814;52.118;11.436;2022-09-30T16:15:06;16.30;96.70
29571;DHT22;16814;52.118;11.436;2022-09-30T16:17:36;16.10;97.30
29571;DHT22;16814;52.118;11.436;2022-09-30T16:25:19;15.90;98.40
29571;DHT22;16814;52.118;11.436;2022-09-30T16:27:46;15.80;98.60
29571;DHT22;16814;52.118;11.436;2022-09-30T16:30:20;15.80;98.90
29571;DHT22;16814;52.118;11.436;2022-09-30T16:32:54;15.70;99.20
29571;DHT22;16814;52.118;11.436;2022-09-30T16:35:27;15.60;99.10
29571;DHT22;16814;52.118;11.436;2022-09-30T16:37:59;15.60;99.30
29571;DHT22;16814;52.118;11.436;2022-09-30T16:40:26;15.40;99.60
29571;DHT22;16814;52.118;11.436;2022-09-30T16:42:53;15.30;99.90
29571;DHT22;16814;52.118;11.436;2022-09-30T16:45:24;15.20;99.90
29571;DHT22;16814;52.118;11.436;2022-09-30T16:47:51;14.90;99.90
29571;DHT22;16814;52.118;11.436;2022-09-30T16:50:47;14.70;99.90
29571;DHT22;16814;52.118;11.436;2022-09-30T16:53:16;14.50;99.90
29571;DHT22;16814;52.118;11.436;2022-09-30T16:55:43;14.40;99.90
29571;DHT22;16814;52.118;11.436;2022-09-30T16:58:11;14.10;99.90
29571;DHT22;16814;52.118;11.436;2022-09-30T17:00:40;13.90;99.90
29571;DHT22;16814;52.118;11.436;2022-09-30T17:03:17;13.80;99.90
29571;DHT22;16814;52.118;11.436;2022-09-30T17:05:58;13.50;99.90
29571;DHT22;16814;52.118;11.436;2022-09-30T17:08:24;12.90;99.90
29571;DHT22;16814;52.118;11.436;2022-09-30T17:10:51;12.80;99.90
29571;DHT22;16814;52.118;11.436;2022-09-30T17:13:18;12.40;99.90
29571;DHT22;16814;52.118;11.436;2022-09-30T17:15:51;12.30;99.90
29571;DHT22;16814;52.118;11.436;2022-09-30T17:18:18;12.20;99.90
29571;DHT22;16814;52.118;11.436;2022-09-30T17:20:45;12.20;99.90
29571;DHT22;16814;52.118;11.436;2022-09-30T17:23:18;12.30;99.90
29571;DHT22;16814;52.118;11.436;2022-09-30T17:25:46;12.20;99.90
29571;DHT22;16814;52.118;11.436;2022-09-30T17:28:14;12.10;99.90
29571;DHT22;16814;52.118;11.436;2022-09-30T17:30:44;12.10;99.90
29571;DHT22;16814;52.118;11.436;2022-09-30T17:33:10;12.10;99.90
29571;DHT22;16814;52.118;11.436;2022-09-30T17:35:38;12.10;99.90
29571;DHT22;16814;52.118;11.436;2022-09-30T17:38:06;12.10;99.90
29571;DHT22;16814;52.118;11.436;2022-09-30T17:40:34;12.10;99.90
29571;DHT22;16814;52.118;11.436;2022-09-30T17:43:19;12.10;99.90
29571;DHT22;16814;52.118;11.436;2022-09-30T17:45:47;12.20;99.90
29571;DHT22;16814;52.118;11.436;2022-09-30T17:48:15;12.30;99.90
29571;DHT22;16814;52.118;11.436;2022-09-30T17:50:46;12.40;99.90
29571;DHT22;16814;52.118;11.436;2022-09-30T17:53:21;12.40;99.90
29571;DHT22;16814;52.118;11.436;2022-09-30T17:55:48;12.40;99.90
29571;DHT22;16814;52.118;11.436;2022-09-30T17:58:25;12.60;99.90
29571;DHT22;16814;52.118;11.436;2022-09-30T18:00:51;12.60;99.90
29571;DHT22;16814;52.118;11.436;2022-09-30T18:03:16;12.70;99.90
29571;DHT22;16814;52.118;11.436;2022-09-30T18:05:45;12.80;99.90
29571;DHT22;16814;52.118;11.436;2022-09-30T18:08:13;12.80;99.90
29571;DHT22;16814;52.118;11.436;2022-09-30T18:10:40;12.80;99.90
29571;DHT22;16814;52.118;11.436;2022-09-30T18:13:05;12.70;99.90
29571;DHT22;16814;52.118;11.436;2022-09-30T18:15:33;12.70;99.90
29571;DHT22;16814;52.118;11.436;2022-09-30T18:18:00;12.70;99.90
29571;DHT22;16814;52.118;11.436;2022-09-30T18:20:26;12.60;99.90
29571;DHT22;16814;52.118;11.436;2022-09-30T18:22:51;12.20;99.90
29571;DHT22;16814;52.118;11.436;2022-09-30T18:25:19;12.20;99.90
29571;DHT22;16814;52.118;11.436;2022-09-30T18:27:46;12.20;99.90
29571;DHT22;16814;52.118;11.436;2022-09-30T18:30:13;12.10;99.90
29571;DHT22;16814;52.118;11.436;2022-09-30T18:32:39;12.10;99.90
29571;DHT22;16814;52.118;11.436;2022-09-30T18:35:07;12.20;99.90
29571;DHT22;16814;52.118;11.436;2022-09-30T18:37:37;12.20;99.90
29571;DHT22;16814;52.118;11.436;2022-09-30T18:40:06;12.20;99.90
29571;DHT22;16814;52.118;11.436;2022-09-30T18:42:33;12.10;99.90
29571;DHT22;16814;52.118;11.436;2022-09-30T18:45:04;12.10;99.90
29571;DHT22;16814;52.118;11.436;2022-09-30T18:47:31;12.20;99.90
29571;DHT22;16814;52.118;11.436;2022-09-30T18:49:58;12.30;99.90
29571;DHT22;16814;52.118;11.436;2022-09-30T18:52:25;12.30;99.90
29571;DHT22;16814;52.118;11.436;2022-09-30T18:54:51;12.20;99.90
29571;DHT22;16814;52.118;11.436;2022-09-30T18:57:17;12.20;99.90
29571;DHT22;16814;52.118;11.436;2022-09-30T18:59:42;12.00;99.90
29571;DHT22;16814;52.118;11.436;2022-09-30T19:02:13;11.90;99.90